sensor_id;sensor_type;location;lat;lon;timestamp;temperature;humidity
68867;SHT30;56451;44.804;20.476;2022-11-15T00:02:00;13.30;60.29
68867;SHT30;56451;44.804;20.476;2022-11-15T00:04:45;13.26;60.36
68867;SHT30;56451;44.804;20.476;2022-11-15T00:07:30;13.23;60.46
68867;SHT30;56451;44.804;20.476;2022-11-15T00:10:14;13.26;60.45
68867;SHT30;56451;44.804;20.476;2022-11-15T00:12:59;13.25;60.58
68867;SHT30;56451;44.804;20.476;2022-11-15T00:15:43;13.20;60.71
68867;SHT30;56451;44.804;20.476;2022-11-15T00:18:28;13.16;60.78
68867;SHT30;56451;44.804;20.476;2022-11-15T00:21:16;13.14;60.93
68867;SHT30;56451;44.804;20.476;2022-11-15T00:24:01;13.06;61.09
68867;SHT30;56451;44.804;20.476;2022-11-15T00:26:45;13.08;61.21
68867;SHT30;56451;44.804;20.476;2022-11-15T00:29:30;13.05;61.20
68867;SHT30;56451;44.804;20.476;2022-11-15T00:32:14;13.06;61.26
68867;SHT30;56451;44.804;20.476;2022-11-15T00:34:59;13.06;61.29
68867;SHT30;56451;44.804;20.476;2022-11-15T00:37:43;12.98;61.48
68867;SHT30;56451;44.804;20.476;2022-11-15T00:40:28;12.97;61.51
68867;SHT30;56451;44.804;20.476;2022-11-15T00:43:12;12.99;61.50
68867;SHT30;56451;44.804;20.476;2022-11-15T00:45:57;12.98;61.44
68867;SHT30;56451;44.804;20.476;2022-11-15T00:48:42;13.01;61.35
68867;SHT30;56451;44.804;20.476;2022-11-15T00:51:26;13.02;61.31
68867;SHT30;56451;44.804;20.476;2022-11-15T00:54:10;12.99;61.17
68867;SHT30;56451;44.804;20.476;2022-11-15T00:56:55;13.02;61.25
68867;SHT30;56451;44.804;20.476;2022-11-15T00:59:39;12.99;61.32
68867;SHT30;56451;44.804;20.476;2022-11-15T01:02:24;12.99;61.22
68867;SHT30;56451;44.804;20.476;2022-11-15T01:05:08;12.95;61.30
68867;SHT30;56451;44.804;20.476;2022-11-15T01:07:54;12.92;61.32
68867;SHT30;56451;44.804;20.476;2022-11-15T01:10:39;12.95;61.24
68867;SHT30;56451;44.804;20.476;2022-11-15T01:13:23;12.91;61.34
68867;SHT30;56451;44.804;20.476;2022-11-15T01:16:13;12.87;61.54
68867;SHT30;56451;44.804;20.476;2022-11-15T01:18:57;12.81;61.68
68867;SHT30;56451;44.804;20.476;2022-11-15T01:21:42;12.74;61.72
68867;SHT30;56451;44.804;20.476;2022-11-15T01:24:27;12.74;61.76
68867;SHT30;56451;44.804;20.476;2022-11-15T01:27:11;12.73;61.77
68867;SHT30;56451;44.804;20.476;2022-11-15T01:29:56;12.73;61.94
68867;SHT30;56451;44.804;20.476;2022-11-15T01:32:40;12.71;61.85
68867;SHT30;56451;44.804;20.476;2022-11-15T01:35:24;12.68;61.88
68867;SHT30;56451;44.804;20.476;2022-11-15T01:38:09;12.63;62.04
68867;SHT30;56451;44.804;20.476;2022-11-15T01:40:53;12.64;62.04
68867;SHT30;56451;44.804;20.476;2022-11-15T01:43:39;12.64;62.07
68867;SHT30;56451;44.804;20.476;2022-11-15T01:46:28;12.61;62.00
68867;SHT30;56451;44.804;20.476;2022-11-15T01:49:18;12.63;62.08
68867;SHT30;56451;44.804;20.476;2022-11-15T01:52:10;12.63;62.13
68867;SHT30;56451;44.804;20.476;2022-11-15T01:58:19;12.65;62.17
68867;SHT30;56451;44.804;20.476;2022-11-15T02:01:04;12.61;62.19
68867;SHT30;56451;44.804;20.476;2022-11-15T02:03:52;12.58;62.23
68867;SHT30;56451;44.804;20.476;2022-11-15T02:06:39;12.60;62.18
68867;SHT30;56451;44.804;20.476;2022-11-15T02:09:24;12.63;62.23
68867;SHT30;56451;44.804;20.476;2022-11-15T02:12:09;12.60;62.30
68867;SHT30;56451;44.804;20.476;2022-11-15T02:14:55;12.64;62.22
68867;SHT30;56451;44.804;20.476;2022-11-15T02:27:16;12.70;61.88
68867;SHT30;56451;44.804;20.476;2022-11-15T02:33:50;12.70;61.94
68867;SHT30;56451;44.804;20.476;2022-11-15T02:36:46;12.71;61.90
68867;SHT30;56451;44.804;20.476;2022-11-15T02:39:51;12.73;61.81
68867;SHT30;56451;44.804;20.476;2022-11-15T02:42:39;12.71;61.89
68867;SHT30;56451;44.804;20.476;2022-11-15T02:45:48;12.73;61.81
68867;SHT30;56451;44.804;20.476;2022-11-15T02:48:34;12.76;61.68
68867;SHT30;56451;44.804;20.476;2022-11-15T02:51:20;12.76;61.69
68867;SHT30;56451;44.804;20.476;2022-11-15T02:54:05;12.70;61.83
68867;SHT30;56451;44.804;20.476;2022-11-15T02:56:54;12.74;61.83
68867;SHT30;56451;44.804;20.476;2022-11-15T02:59:59;12.77;61.67
68867;SHT30;56451;44.804;20.476;2022-11-15T03:03:59;12.74;61.58
68867;SHT30;56451;44.804;20.476;2022-11-15T03:12:46;12.70;61.71
68867;SHT30;56451;44.804;20.476;2022-11-15T03:15:38;12.74;61.72
68867;SHT30;56451;44.804;20.476;2022-11-15T03:18:41;12.77;61.70
68867;SHT30;56451;44.804;20.476;2022-11-15T03:21:28;12.80;61.56
68867;SHT30;56451;44.804;20.476;2022-11-15T03:24:15;12.83;61.48
68867;SHT30;56451;44.804;20.476;2022-11-15T03:27:06;12.81;61.45
68867;SHT30;56451;44.804;20.476;2022-11-15T03:29:55;12.84;61.39
68867;SHT30;56451;44.804;20.476;2022-11-15T03:32:51;12.89;61.24
68867;SHT30;56451;44.804;20.476;2022-11-15T03:35:40;12.88;61.28
68867;SHT30;56451;44.804;20.476;2022-11-15T03:38:29;12.91;61.21
68867;SHT30;56451;44.804;20.476;2022-11-15T03:41:23;12.91;61.08
68867;SHT30;56451;44.804;20.476;2022-11-15T03:44:19;12.88;61.18
68867;SHT30;56451;44.804;20.476;2022-11-15T03:47:20;12.84;61.17
68867;SHT30;56451;44.804;20.476;2022-11-15T03:50:17;12.87;61.03
68867;SHT30;56451;44.804;20.476;2022-11-15T03:53:02;12.81;61.06
68867;SHT30;56451;44.804;20.476;2022-11-15T03:55:47;12.77;61.21
68867;SHT30;56451;44.804;20.476;2022-11-15T03:58:31;12.74;61.24
68867;SHT30;56451;44.804;20.476;2022-11-15T04:01:16;12.74;61.27
68867;SHT30;56451;44.804;20.476;2022-11-15T04:04:00;12.77;61.23
68867;SHT30;56451;44.804;20.476;2022-11-15T04:06:44;12.73;61.28
68867;SHT30;56451;44.804;20.476;2022-11-15T04:09:29;12.73;61.43
68867;SHT30;56451;44.804;20.476;2022-11-15T04:12:14;12.73;61.30
68867;SHT30;56451;44.804;20.476;2022-11-15T04:15:17;12.64;61.47
68867;SHT30;56451;44.804;20.476;2022-11-15T04:18:02;12.67;61.48
68867;SHT30;56451;44.804;20.476;2022-11-15T04:20:47;12.67;61.59
68867;SHT30;56451;44.804;20.476;2022-11-15T04:23:50;12.64;61.63
68867;SHT30;56451;44.804;20.476;2022-11-15T04:26:37;12.60;61.74
68867;SHT30;56451;44.804;20.476;2022-11-15T04:29:22;12.61;61.70
68867;SHT30;56451;44.804;20.476;2022-11-15T04:32:19;12.58;61.72
68867;SHT30;56451;44.804;20.476;2022-11-15T04:35:03;12.58;61.92
68867;SHT30;56451;44.804;20.476;2022-11-15T04:37:48;12.58;62.05
68867;SHT30;56451;44.804;20.476;2022-11-15T04:40:32;12.60;61.99
68867;SHT30;56451;44.804;20.476;2022-11-15T04:43:17;12.61;62.03
68867;SHT30;56451;44.804;20.476;2022-11-15T04:46:01;12.54;62.19
68867;SHT30;56451;44.804;20.476;2022-11-15T04:48:46;12.58;62.18
68867;SHT30;56451;44.804;20.476;2022-11-15T04:51:30;12.63;62.08
68867;SHT30;56451;44.804;20.476;2022-11-15T04:54:15;12.56;62.15
68867;SHT30;56451;44.804;20.476;2022-11-15T04:56:59;12.53;62.25
68867;SHT30;56451;44.804;20.476;2022-11-15T04:59:44;12.49;62.40
68867;SHT30;56451;44.804;20.476;2022-11-15T05:02:28;12.51;62.30
68867;SHT30;56451;44.804;20.476;2022-11-15T05:05:32;12.46;62.37
68867;SHT30;56451;44.804;20.476;2022-11-15T05:08:17;12.44;62.53
68867;SHT30;56451;44.804;20.476;2022-11-15T05:11:01;12.44;62.46
68867;SHT30;56451;44.804;20.476;2022-11-15T05:13:46;12.50;62.33
68867;SHT30;56451;44.804;20.476;2022-11-15T05:16:30;12.46;62.43
68867;SHT30;56451;44.804;20.476;2022-11-15T05:19:15;12.46;62.49
68867;SHT30;56451;44.804;20.476;2022-11-15T05:22:00;12.46;62.55
68867;SHT30;56451;44.804;20.476;2022-11-15T05:24:44;12.47;62.46
68867;SHT30;56451;44.804;20.476;2022-11-15T05:27:29;12.47;62.44
68867;SHT30;56451;44.804;20.476;2022-11-15T05:30:14;12.50;62.43
68867;SHT30;56451;44.804;20.476;2022-11-15T05:32:59;12.51;62.39
68867;SHT30;56451;44.804;20.476;2022-11-15T05:35:50;12.50;62.31
68867;SHT30;56451;44.804;20.476;2022-11-15T05:38:35;12.51;62.39
68867;SHT30;56451;44.804;20.476;2022-11-15T05:41:22;12.49;62.51
68867;SHT30;56451;44.804;20.476;2022-11-15T05:44:11;12.49;62.45
68867;SHT30;56451;44.804;20.476;2022-11-15T05:46:56;12.39;62.77
68867;SHT30;56451;44.804;20.476;2022-11-15T05:49:42;12.37;62.91
68867;SHT30;56451;44.804;20.476;2022-11-15T05:52:31;12.37;62.93
68867;SHT30;56451;44.804;20.476;2022-11-15T05:55:17;12.41;62.87
68867;SHT30;56451;44.804;20.476;2022-11-15T05:58:02;12.44;62.82
68867;SHT30;56451;44.804;20.476;2022-11-15T06:00:47;12.44;62.99
68867;SHT30;56451;44.804;20.476;2022-11-15T06:03:31;12.49;62.91
68867;SHT30;56451;44.804;20.476;2022-11-15T06:06:16;12.53;62.88
68867;SHT30;56451;44.804;20.476;2022-11-15T06:09:01;12.57;62.79
68867;SHT30;56451;44.804;20.476;2022-11-15T06:11:45;12.61;62.71
68867;SHT30;56451;44.804;20.476;2022-11-15T06:14:30;12.64;62.59
68867;SHT30;56451;44.804;20.476;2022-11-15T06:17:14;12.70;62.41
68867;SHT30;56451;44.804;20.476;2022-11-15T06:19:58;12.76;62.22
68867;SHT30;56451;44.804;20.476;2022-11-15T06:22:44;12.76;62.28
68867;SHT30;56451;44.804;20.476;2022-11-15T06:25:29;12.76;62.26
68867;SHT30;56451;44.804;20.476;2022-11-15T06:28:14;12.73;62.19
68867;SHT30;56451;44.804;20.476;2022-11-15T06:31:09;12.78;62.05
68867;SHT30;56451;44.804;20.476;2022-11-15T06:33:57;12.78;62.14
68867;SHT30;56451;44.804;20.476;2022-11-15T06:36:42;12.73;61.86
68867;SHT30;56451;44.804;20.476;2022-11-15T06:39:26;12.68;62.11
68867;SHT30;56451;44.804;20.476;2022-11-15T06:42:11;12.67;62.31
68867;SHT30;56451;44.804;20.476;2022-11-15T06:44:55;12.71;62.23
68867;SHT30;56451;44.804;20.476;2022-11-15T06:47:46;12.74;62.04
68867;SHT30;56451;44.804;20.476;2022-11-15T06:50:31;12.74;62.01
68867;SHT30;56451;44.804;20.476;2022-11-15T06:53:16;12.74;62.05
68867;SHT30;56451;44.804;20.476;2022-11-15T06:56:05;12.73;61.99
68867;SHT30;56451;44.804;20.476;2022-11-15T06:58:50;12.76;61.99
68867;SHT30;56451;44.804;20.476;2022-11-15T07:01:36;12.81;62.00
68867;SHT30;56451;44.804;20.476;2022-11-15T07:04:20;12.84;61.94
68867;SHT30;56451;44.804;20.476;2022-11-15T07:07:05;12.84;61.87
68867;SHT30;56451;44.804;20.476;2022-11-15T07:09:50;12.89;61.82
68867;SHT30;56451;44.804;20.476;2022-11-15T07:12:34;12.91;61.74
68867;SHT30;56451;44.804;20.476;2022-11-15T07:15:21;12.95;61.68
68867;SHT30;56451;44.804;20.476;2022-11-15T07:18:06;12.94;61.61
68867;SHT30;56451;44.804;20.476;2022-11-15T07:20:50;12.94;61.51
68867;SHT30;56451;44.804;20.476;2022-11-15T07:23:38;12.91;61.56
68867;SHT30;56451;44.804;20.476;2022-11-15T07:26:22;12.95;61.52
68867;SHT30;56451;44.804;20.476;2022-11-15T07:29:07;12.97;61.54
68867;SHT30;56451;44.804;20.476;2022-11-15T07:31:51;13.01;61.48
68867;SHT30;56451;44.804;20.476;2022-11-15T07:34:36;12.99;61.54
68867;SHT30;56451;44.804;20.476;2022-11-15T07:37:20;13.02;61.59
68867;SHT30;56451;44.804;20.476;2022-11-15T07:40:05;13.02;61.57
68867;SHT30;56451;44.804;20.476;2022-11-15T07:42:51;13.08;61.45
68867;SHT30;56451;44.804;20.476;2022-11-15T07:45:43;13.09;61.46
68867;SHT30;56451;44.804;20.476;2022-11-15T07:48:27;13.08;61.54
68867;SHT30;56451;44.804;20.476;2022-11-15T07:51:13;13.16;61.44
68867;SHT30;56451;44.804;20.476;2022-11-15T07:54:00;13.15;61.47
68867;SHT30;56451;44.804;20.476;2022-11-15T07:56:45;13.15;61.48
68867;SHT30;56451;44.804;20.476;2022-11-15T07:59:30;13.20;61.39
68867;SHT30;56451;44.804;20.476;2022-11-15T08:02:14;13.23;61.42
68867;SHT30;56451;44.804;20.476;2022-11-15T08:05:02;13.30;61.50
68867;SHT30;56451;44.804;20.476;2022-11-15T08:07:47;13.36;61.45
68867;SHT30;56451;44.804;20.476;2022-11-15T08:10:32;13.46;61.32
68867;SHT30;56451;44.804;20.476;2022-11-15T08:13:17;13.52;61.13
68867;SHT30;56451;44.804;20.476;2022-11-15T08:16:02;13.59;61.01
68867;SHT30;56451;44.804;20.476;2022-11-15T08:18:47;13.63;60.90
68867;SHT30;56451;44.804;20.476;2022-11-15T08:21:31;13.71;60.72
68867;SHT30;56451;44.804;20.476;2022-11-15T08:24:16;13.76;60.53
68867;SHT30;56451;44.804;20.476;2022-11-15T08:27:00;13.77;60.61
68867;SHT30;56451;44.804;20.476;2022-11-15T08:29:47;13.88;60.56
68867;SHT30;56451;44.804;20.476;2022-11-15T08:32:32;13.94;60.59
68867;SHT30;56451;44.804;20.476;2022-11-15T08:35:17;14.04;60.41
68867;SHT30;56451;44.804;20.476;2022-11-15T08:38:02;14.07;60.33
68867;SHT30;56451;44.804;20.476;2022-11-15T08:40:46;14.12;60.23
68867;SHT30;56451;44.804;20.476;2022-11-15T08:43:30;14.21;60.39
68867;SHT30;56451;44.804;20.476;2022-11-15T08:46:14;14.31;60.18
68867;SHT30;56451;44.804;20.476;2022-11-15T08:49:00;14.36;60.33
68867;SHT30;56451;44.804;20.476;2022-11-15T08:51:44;14.43;60.16
68867;SHT30;56451;44.804;20.476;2022-11-15T08:54:29;14.43;60.06
68867;SHT30;56451;44.804;20.476;2022-11-15T08:57:13;14.55;59.82
68867;SHT30;56451;44.804;20.476;2022-11-15T08:59:58;14.59;59.85
68867;SHT30;56451;44.804;20.476;2022-11-15T09:02:42;14.62;59.80
68867;SHT30;56451;44.804;20.476;2022-11-15T09:05:26;14.73;59.51
68867;SHT30;56451;44.804;20.476;2022-11-15T09:08:11;14.79;59.29
68867;SHT30;56451;44.804;20.476;2022-11-15T09:10:57;14.83;59.38
68867;SHT30;56451;44.804;20.476;2022-11-15T09:13:42;14.90;59.39
68867;SHT30;56451;44.804;20.476;2022-11-15T09:16:26;14.99;59.10
68867;SHT30;56451;44.804;20.476;2022-11-15T09:19:11;15.08;58.91
68867;SHT30;56451;44.804;20.476;2022-11-15T09:21:56;15.14;58.76
68867;SHT30;56451;44.804;20.476;2022-11-15T09:24:40;15.21;58.54
68867;SHT30;56451;44.804;20.476;2022-11-15T09:27:29;15.27;58.38
68867;SHT30;56451;44.804;20.476;2022-11-15T09:30:14;15.31;58.19
68867;SHT30;56451;44.804;20.476;2022-11-15T09:32:58;15.28;58.44
68867;SHT30;56451;44.804;20.476;2022-11-15T09:35:44;15.32;58.28
68867;SHT30;56451;44.804;20.476;2022-11-15T09:38:29;15.35;58.31
68867;SHT30;56451;44.804;20.476;2022-11-15T09:47:42;15.49;58.01
68867;SHT30;56451;44.804;20.476;2022-11-15T09:50:49;15.55;57.86
68867;SHT30;56451;44.804;20.476;2022-11-15T09:53:43;15.62;57.58
68867;SHT30;56451;44.804;20.476;2022-11-15T09:56:22;15.72;57.36
68867;SHT30;56451;44.804;20.476;2022-11-15T10:04:58;15.92;57.12
68867;SHT30;56451;44.804;20.476;2022-11-15T10:13:00;16.12;56.53
68867;SHT30;56451;44.804;20.476;2022-11-15T10:15:27;16.14;56.50
68867;SHT30;56451;44.804;20.476;2022-11-15T10:20:57;16.23;56.16
68867;SHT30;56451;44.804;20.476;2022-11-15T10:23:24;16.24;56.12
68867;SHT30;56451;44.804;20.476;2022-11-15T10:25:55;16.30;56.15
68867;SHT30;56451;44.804;20.476;2022-11-15T10:28:31;16.36;56.17
68867;SHT30;56451;44.804;20.476;2022-11-15T10:30:58;16.38;56.16
68867;SHT30;56451;44.804;20.476;2022-11-15T10:33:33;16.43;56.12
68867;SHT30;56451;44.804;20.476;2022-11-15T10:46:36;16.71;55.51
68867;SHT30;56451;44.804;20.476;2022-11-15T10:54:47;16.88;55.18
68867;SHT30;56451;44.804;20.476;2022-11-15T10:57:16;16.89;55.20
68867;SHT30;56451;44.804;20.476;2022-11-15T10:59:51;16.92;55.34
68867;SHT30;56451;44.804;20.476;2022-11-15T11:02:35;16.99;55.30
68867;SHT30;56451;44.804;20.476;2022-11-15T11:05:03;17.03;55.22
68867;SHT30;56451;44.804;20.476;2022-11-15T11:07:31;17.06;55.05
68867;SHT30;56451;44.804;20.476;2022-11-15T11:10:05;17.13;54.97
68867;SHT30;56451;44.804;20.476;2022-11-15T11:12:39;17.16;54.85
68867;SHT30;56451;44.804;20.476;2022-11-15T11:15:11;17.19;54.78
68867;SHT30;56451;44.804;20.476;2022-11-15T11:18:22;17.18;54.74
68867;SHT30;56451;44.804;20.476;2022-11-15T11:20:59;17.23;54.63
68867;SHT30;56451;44.804;20.476;2022-11-15T11:40:19;17.39;54.11
68867;SHT30;56451;44.804;20.476;2022-11-15T11:48:14;17.36;54.35
68867;SHT30;56451;44.804;20.476;2022-11-15T11:50:44;17.36;54.33
68867;SHT30;56451;44.804;20.476;2022-11-15T11:53:17;17.32;54.28
68867;SHT30;56451;44.804;20.476;2022-11-15T11:55:53;17.30;54.37
68867;SHT30;56451;44.804;20.476;2022-11-15T12:12:07;17.20;54.87
68867;SHT30;56451;44.804;20.476;2022-11-15T12:17:28;17.18;54.96
68867;SHT30;56451;44.804;20.476;2022-11-15T12:20:03;17.18;54.60
68867;SHT30;56451;44.804;20.476;2022-11-15T12:22:43;17.13;54.62
68867;SHT30;56451;44.804;20.476;2022-11-15T12:25:30;17.13;54.67
68867;SHT30;56451;44.804;20.476;2022-11-15T12:31:06;17.08;54.55
68867;SHT30;56451;44.804;20.476;2022-11-15T12:33:41;17.06;54.64
68867;SHT30;56451;44.804;20.476;2022-11-15T12:39:03;17.05;54.57
68867;SHT30;56451;44.804;20.476;2022-11-15T12:41:34;17.01;54.58
68867;SHT30;56451;44.804;20.476;2022-11-15T12:44:01;17.01;54.60
68867;SHT30;56451;44.804;20.476;2022-11-15T12:49:03;17.05;54.61
68867;SHT30;56451;44.804;20.476;2022-11-15T13:00:53;17.11;54.49
68867;SHT30;56451;44.804;20.476;2022-11-15T13:02:48;17.11;54.37
68867;SHT30;56451;44.804;20.476;2022-11-15T13:28:31;17.22;54.16
68867;SHT30;56451;44.804;20.476;2022-11-15T13:31:40;17.24;53.93
68867;SHT30;56451;44.804;20.476;2022-11-15T13:36:50;17.34;53.93
68867;SHT30;56451;44.804;20.476;2022-11-15T13:39:34;17.40;53.74
68867;SHT30;56451;44.804;20.476;2022-11-15T13:42:02;17.46;53.60
68867;SHT30;56451;44.804;20.476;2022-11-15T13:44:30;17.54;53.38
68867;SHT30;56451;44.804;20.476;2022-11-15T13:47:18;17.59;52.96
68867;SHT30;56451;44.804;20.476;2022-11-15T13:49:45;17.60;53.03
68867;SHT30;56451;44.804;20.476;2022-11-15T13:52:14;17.61;53.12
68867;SHT30;56451;44.804;20.476;2022-11-15T13:54:55;17.63;52.99
68867;SHT30;56451;44.804;20.476;2022-11-15T13:57:28;17.67;52.76
68867;SHT30;56451;44.804;20.476;2022-11-15T13:59:57;17.69;52.71
68867;SHT30;56451;44.804;20.476;2022-11-15T14:02:27;17.73;52.48
68867;SHT30;56451;44.804;20.476;2022-11-15T14:04:59;17.73;52.69
68867;SHT30;56451;44.804;20.476;2022-11-15T14:07:27;17.75;52.60
68867;SHT30;56451;44.804;20.476;2022-11-15T14:09:54;17.77;52.47
68867;SHT30;56451;44.804;20.476;2022-11-15T14:14:52;17.74;52.20
68867;SHT30;56451;44.804;20.476;2022-11-15T14:19:57;17.75;52.33
68867;SHT30;56451;44.804;20.476;2022-11-15T14:22:29;17.75;52.32
68867;SHT30;56451;44.804;20.476;2022-11-15T14:27:44;17.71;52.42
68867;SHT30;56451;44.804;20.476;2022-11-15T14:30:15;17.70;52.47
68867;SHT30;56451;44.804;20.476;2022-11-15T14:32:49;17.64;52.44
68867;SHT30;56451;44.804;20.476;2022-11-15T14:35:21;17.59;52.65
68867;SHT30;56451;44.804;20.476;2022-11-15T14:37:47;17.54;52.70
68867;SHT30;56451;44.804;20.476;2022-11-15T14:40:19;17.50;52.84
68867;SHT30;56451;44.804;20.476;2022-11-15T14:42:46;17.46;52.55
68867;SHT30;56451;44.804;20.476;2022-11-15T14:45:18;17.37;52.71
68867;SHT30;56451;44.804;20.476;2022-11-15T14:47:45;17.34;52.91
68867;SHT30;56451;44.804;20.476;2022-11-15T14:50:16;17.22;53.31
68867;SHT30;56451;44.804;20.476;2022-11-15T14:52:42;17.18;53.35
68867;SHT30;56451;44.804;20.476;2022-11-15T14:55:18;17.09;53.64
68867;SHT30;56451;44.804;20.476;2022-11-15T14:57:45;17.03;53.74
68867;SHT30;56451;44.804;20.476;2022-11-15T15:00:12;16.96;53.95
68867;SHT30;56451;44.804;20.476;2022-11-15T15:02:39;16.91;54.10
68867;SHT30;56451;44.804;20.476;2022-11-15T15:05:21;16.88;54.14
68867;SHT30;56451;44.804;20.476;2022-11-15T15:07:48;16.82;54.26
68867;SHT30;56451;44.804;20.476;2022-11-15T15:10:14;16.81;54.37
68867;SHT30;56451;44.804;20.476;2022-11-15T15:12:41;16.76;54.40
68867;SHT30;56451;44.804;20.476;2022-11-15T15:15:13;16.74;54.62
68867;SHT30;56451;44.804;20.476;2022-11-15T15:17:40;16.68;54.92
68867;SHT30;56451;44.804;20.476;2022-11-15T15:20:06;16.65;55.11
68867;SHT30;56451;44.804;20.476;2022-11-15T15:22:32;16.60;55.20
68867;SHT30;56451;44.804;20.476;2022-11-15T15:24:58;16.57;55.22
68867;SHT30;56451;44.804;20.476;2022-11-15T15:27:24;16.57;55.27
68867;SHT30;56451;44.804;20.476;2022-11-15T15:29:49;16.55;55.26
68867;SHT30;56451;44.804;20.476;2022-11-15T15:32:15;16.51;55.46
68867;SHT30;56451;44.804;20.476;2022-11-15T15:34:42;16.48;55.49
68867;SHT30;56451;44.804;20.476;2022-11-15T15:39:43;16.44;55.58
68867;SHT30;56451;44.804;20.476;2022-11-15T15:42:09;16.40;55.66
68867;SHT30;56451;44.804;20.476;2022-11-15T15:44:35;16.36;55.77
68867;SHT30;56451;44.804;20.476;2022-11-15T15:47:01;16.33;55.83
68867;SHT30;56451;44.804;20.476;2022-11-15T15:49:27;16.30;55.81
68867;SHT30;56451;44.804;20.476;2022-11-15T15:51:53;16.26;55.93
68867;SHT30;56451;44.804;20.476;2022-11-15T15:54:19;16.26;55.97
68867;SHT30;56451;44.804;20.476;2022-11-15T15:56:45;16.24;55.96
68867;SHT30;56451;44.804;20.476;2022-11-15T15:59:11;16.27;55.98
68867;SHT30;56451;44.804;20.476;2022-11-15T16:01:37;16.21;56.14
68867;SHT30;56451;44.804;20.476;2022-11-15T16:04:03;16.24;56.12
68867;SHT30;56451;44.804;20.476;2022-11-15T16:06:39;16.26;56.22
68867;SHT30;56451;44.804;20.476;2022-11-15T16:09:08;16.26;56.43
68867;SHT30;56451;44.804;20.476;2022-11-15T16:11:34;16.23;56.65
68867;SHT30;56451;44.804;20.476;2022-11-15T16:14:00;16.20;56.93
68867;SHT30;56451;44.804;20.476;2022-11-15T16:16:26;16.21;57.01
68867;SHT30;56451;44.804;20.476;2022-11-15T16:18:51;16.21;57.26
68867;SHT30;56451;44.804;20.476;2022-11-15T16:21:19;16.14;57.52
68867;SHT30;56451;44.804;20.476;2022-11-15T16:23:45;16.17;57.72
68867;SHT30;56451;44.804;20.476;2022-11-15T16:26:23;16.14;57.86
68867;SHT30;56451;44.804;20.476;2022-11-15T16:28:49;16.14;58.03
68867;SHT30;56451;44.804;20.476;2022-11-15T16:31:15;16.12;58.14
68867;SHT30;56451;44.804;20.476;2022-11-15T16:33:43;16.12;58.25
68867;SHT30;56451;44.804;20.476;2022-11-15T16:36:20;16.13;58.41
68867;SHT30;56451;44.804;20.476;2022-11-15T16:38:46;16.09;58.58
68867;SHT30;56451;44.804;20.476;2022-11-15T16:41:12;16.07;58.76
68867;SHT30;56451;44.804;20.476;2022-11-15T16:43:38;16.06;58.97
68867;SHT30;56451;44.804;20.476;2022-11-15T16:46:13;16.03;58.97
68867;SHT30;56451;44.804;20.476;2022-11-15T16:48:39;16.03;59.11
68867;SHT30;56451;44.804;20.476;2022-11-15T16:51:05;16.00;59.17
68867;SHT30;56451;44.804;20.476;2022-11-15T16:53:31;15.97;59.27
68867;SHT30;56451;44.804;20.476;2022-11-15T16:55:57;15.96;59.35
68867;SHT30;56451;44.804;20.476;2022-11-15T16:58:24;15.95;59.43
68867;SHT30;56451;44.804;20.476;2022-11-15T17:00:54;15.93;59.47
68867;SHT30;56451;44.804;20.476;2022-11-15T17:03:22;15.92;59.51
68867;SHT30;56451;44.804;20.476;2022-11-15T17:05:48;15.89;59.69
68867;SHT30;56451;44.804;20.476;2022-11-15T17:08:14;15.88;59.70
68867;SHT30;56451;44.804;20.476;2022-11-15T17:10:40;15.86;59.68
68867;SHT30;56451;44.804;20.476;2022-11-15T17:13:11;15.86;59.70
68867;SHT30;56451;44.804;20.476;2022-11-15T17:15:37;15.85;59.74
68867;SHT30;56451;44.804;20.476;2022-11-15T17:18:03;15.82;59.73
68867;SHT30;56451;44.804;20.476;2022-11-15T17:20:30;15.81;59.82
68867;SHT30;56451;44.804;20.476;2022-11-15T17:22:55;15.78;59.92
68867;SHT30;56451;44.804;20.476;2022-11-15T17:25:21;15.75;60.13
68867;SHT30;56451;44.804;20.476;2022-11-15T17:27:47;15.72;60.24
68867;SHT30;56451;44.804;20.476;2022-11-15T17:30:14;15.72;60.36
68867;SHT30;56451;44.804;20.476;2022-11-15T17:32:41;15.68;60.37
68867;SHT30;56451;44.804;20.476;2022-11-15T17:35:09;15.65;60.29
68867;SHT30;56451;44.804;20.476;2022-11-15T17:37:36;15.59;60.27
68867;SHT30;56451;44.804;20.476;2022-11-15T17:40:02;15.59;60.35
68867;SHT30;56451;44.804;20.476;2022-11-15T17:42:28;15.61;60.33
68867;SHT30;56451;44.804;20.476;2022-11-15T17:44:54;15.58;60.28
68867;SHT30;56451;44.804;20.476;2022-11-15T17:47:20;15.57;60.40
68867;SHT30;56451;44.804;20.476;2022-11-15T17:49:46;15.51;60.51
68867;SHT30;56451;44.804;20.476;2022-11-15T17:52:11;15.52;60.60
68867;SHT30;56451;44.804;20.476;2022-11-15T17:54:37;15.47;60.78
68867;SHT30;56451;44.804;20.476;2022-11-15T17:57:03;15.48;60.94
68867;SHT30;56451;44.804;20.476;2022-11-15T17:59:29;15.44;61.18
68867;SHT30;56451;44.804;20.476;2022-11-15T18:01:55;15.41;61.31
68867;SHT30;56451;44.804;20.476;2022-11-15T18:04:21;15.38;61.50
68867;SHT30;56451;44.804;20.476;2022-11-15T18:06:53;15.35;61.76
68867;SHT30;56451;44.804;20.476;2022-11-15T18:09:19;15.28;62.30
68867;SHT30;56451;44.804;20.476;2022-11-15T18:11:46;15.27;62.66
68867;SHT30;56451;44.804;20.476;2022-11-15T18:14:17;15.21;62.98
68867;SHT30;56451;44.804;20.476;2022-11-15T18:16:43;15.16;63.32
68867;SHT30;56451;44.804;20.476;2022-11-15T18:19:09;15.10;63.41
68867;SHT30;56451;44.804;20.476;2022-11-15T18:21:40;15.07;63.63
68867;SHT30;56451;44.804;20.476;2022-11-15T18:24:31;15.01;64.06
68867;SHT30;56451;44.804;20.476;2022-11-15T18:26:59;14.97;64.34
68867;SHT30;56451;44.804;20.476;2022-11-15T18:29:26;14.93;64.58
68867;SHT30;56451;44.804;20.476;2022-11-15T18:31:53;14.89;64.75
68867;SHT30;56451;44.804;20.476;2022-11-15T18:34:23;14.86;64.95
68867;SHT30;56451;44.804;20.476;2022-11-15T18:36:51;14.83;65.21
68867;SHT30;56451;44.804;20.476;2022-11-15T18:39:17;14.79;65.38
68867;SHT30;56451;44.804;20.476;2022-11-15T18:41:44;14.73;65.50
68867;SHT30;56451;44.804;20.476;2022-11-15T18:44:11;14.70;65.65
68867;SHT30;56451;44.804;20.476;2022-11-15T18:46:37;14.70;65.73
68867;SHT30;56451;44.804;20.476;2022-11-15T18:49:03;14.72;65.84
68867;SHT30;56451;44.804;20.476;2022-11-15T18:51:30;14.68;65.99
68867;SHT30;56451;44.804;20.476;2022-11-15T18:53:59;14.62;66.06
68867;SHT30;56451;44.804;20.476;2022-11-15T18:56:27;14.56;66.27
68867;SHT30;56451;44.804;20.476;2022-11-15T18:58:54;14.55;66.38
68867;SHT30;56451;44.804;20.476;2022-11-15T19:01:23;14.55;66.47